CFB Cold Lake
CYOD : now visible

Airfield :











YOU CAN JOIN US ON...

 
LOGIN :

Register | Disclaimer

   EN    FR    IT 

 









Legend :    VFR   Marginal VFR   IFR   Intensive IFR   Very Intensive IFR
Visi :
Ceiling :
>= 8 km
>= 3000ft
5 to 8 km
1000 to 3000 ft
1500m to 5 km
500 to 1000 ft
800 to 1500m
200 to 500 ft
< 800m
< 200 ft
Symbols :   Thunderstorms  Fog  Heavy snow  Heavy precipitations  Wind > 20 kt






- Airport Elevation : 1775 ft
- IATA code : YOD


CYOD - CFB Cold Lake

CURRENT METAR :
  • 060300Z 17006KT 15SM BKN040 OVC140 M05/M11 A2988 RMK SC5AC3 VIRGA SLP159

EXPIRED METARs :
  • 060200Z 16009KT 15SM BKN040 OVC200 M03/M11 A2988 RMK SC6CI2 VIRGA SLP160
  • 060100Z 11007KT 15SM BKN042 OVC200 M03/M10 A2988 RMK SC6CI2 VIRGA SLP162

TAF TAF CYOD
Valid from the 06 at 00:00 until the 07 at 00:00 UTC


052330Z 0600/0624 11008KT P6SM BKN040 OVC200
FM060100 12008KT P6SM SCT015 BKN070 OVC180
TEMPO 0601/0605 P6SM -SN BKN015 OVC070
FM060500 11008KT P6SM -SN BKN030 OVC080
TEMPO 0605/0609 4SM -SN BKN012 OVC030
FM060900 11008KT 6SM -SN SCT010 OVC020
TEMPO 0609/0616 3SM -SN BKN010 OVC020
BECMG 0614/0616 04005KT
FM061600 04005KT P6SM SCT015 BKN040
TEMPO 0616/0620 P6SM -SN BKN015 OVC040
BECMG 0616/0618 VRB03KT
FM062000 26005KT P6SM SCT020
TEMPO 0620/0624 BKN020 RMK NXT FCST BY 060600Z



MET'MAP, your aeronautical weather chart ! - Copyright ORBIFLY December 2007 - Disclaimer

ORBIFLY MET'MAP TEAM :

Programming & Development : Alexandra Zaïnal
Concept & original design : Baudouin d'Aumeries
Assistance for programming : Marc-Olivier Méhu
Technical & hardware support : Manuel Goepfert

Contact : metmap@orbifly.com




SOURCES & CREDITS :

   NOAA       Earth
Advisory